createdAt,value
2023-11-23T04:14:38.567Z,0.06
2023-11-23T04:17:05.984Z,-0.57
2023-11-23T04:19:55.735Z,0.17
2023-11-23T04:22:22.952Z,-1.00
2023-11-23T04:24:50.821Z,-0.17
2023-11-23T04:27:20.050Z,-1.18
2023-11-23T04:29:49.220Z,-0.61
2023-11-23T04:32:23.954Z,-0.82
2023-11-23T04:34:50.822Z,0.07
2023-11-23T04:37:19.003Z,-1.73
2023-11-23T04:39:46.027Z,-1.00
2023-11-23T04:42:13.763Z,-1.93
2023-11-23T04:44:41.913Z,-0.39
2023-11-23T04:47:11.208Z,-1.00
2023-11-23T04:49:38.337Z,-1.39
2023-11-23T04:52:06.855Z,-1.56
2023-11-23T04:54:35.697Z,-0.87
2023-11-23T04:57:02.802Z,-0.95
2023-11-23T04:59:29.576Z,-0.47
2023-11-23T05:01:57.097Z,-0.85
2023-11-23T05:04:35.898Z,-1.33
2023-11-23T05:07:02.840Z,-1.20
2023-11-23T05:09:29.807Z,-1.45
2023-11-23T05:11:59.852Z,-1.20
2023-11-23T05:14:26.830Z,-1.42
2023-11-23T05:16:53.947Z,-0.19
2023-11-23T05:19:31.812Z,-0.54
2023-11-23T05:22:06.732Z,-1.91
2023-11-23T05:24:33.837Z,-0.46
2023-11-23T05:27:00.992Z,-1.18
2023-11-23T05:29:29.641Z,-1.11
2023-11-23T05:31:58.019Z,-1.33
2023-11-23T05:34:26.963Z,-1.28
2023-11-23T05:36:56.067Z,-0.59
2023-11-23T05:39:42.730Z,-0.72
2023-11-23T05:42:18.989Z,-2.00
2023-11-23T05:45:10.585Z,-0.59
2023-11-23T05:47:38.466Z,-0.01
2023-11-23T05:50:12.829Z,-1.67
2023-11-23T05:52:41.074Z,-0.81
2023-11-23T05:55:08.954Z,-0.70
2023-11-23T05:57:40.845Z,-0.23
2023-11-23T06:00:32.468Z,-0.63
2023-11-23T06:02:59.611Z,-0.92
2023-11-23T06:05:26.777Z,-0.57
2023-11-23T06:07:54.004Z,-0.96
2023-11-23T06:10:21.439Z,-0.08
2023-11-23T06:12:48.462Z,-1.90
2023-11-23T06:15:15.471Z,-1.69
2023-11-23T06:17:42.503Z,-2.24
2023-11-23T06:20:09.910Z,-1.57
2023-11-23T06:22:36.866Z,-0.94
2023-11-23T06:25:05.128Z,-1.54
2023-11-23T06:27:33.417Z,-1.91
2023-11-23T06:30:00.709Z,-1.10
2023-11-23T06:32:27.921Z,-1.48
2023-11-23T06:34:54.822Z,-1.55
2023-11-23T06:37:21.871Z,-0.29
2023-11-23T06:39:48.930Z,-1.49
2023-11-23T06:42:15.856Z,-0.33
2023-11-23T06:44:42.809Z,-1.71
2023-11-23T06:47:09.662Z,-0.33
2023-11-23T06:49:36.620Z,-0.63
2023-11-23T06:52:03.817Z,-1.06
2023-11-23T06:54:30.803Z,-1.94
2023-11-23T06:56:58.550Z,-1.57
2023-11-23T06:59:25.685Z,-1.28
2023-11-23T07:01:52.660Z,-1.78
2023-11-23T07:04:19.630Z,-0.91
2023-11-23T07:06:46.597Z,-1.15
2023-11-23T07:09:15.188Z,-0.63
2023-11-23T07:11:42.284Z,-0.43
2023-11-23T07:14:09.281Z,-0.97
2023-11-23T07:17:13.988Z,-0.01
2023-11-23T07:20:11.296Z,-0.81
2023-11-23T07:22:48.329Z,-1.00
2023-11-23T07:25:20.861Z,-0.95
2023-11-23T07:27:57.504Z,-0.59
2023-11-23T07:34:41.265Z,-1.08
2023-11-23T07:37:16.223Z,-0.81
2023-11-23T07:39:51.259Z,1.17
2023-11-23T07:42:23.159Z,-0.54
2023-11-23T07:45:20.690Z,-0.01
2023-11-23T07:47:58.045Z,-0.35
2023-11-23T07:50:27.573Z,-1.24
2023-11-23T07:52:58.685Z,-0.21
2023-11-23T07:55:47.285Z,0.05
2023-11-23T07:58:19.412Z,0.48
2023-11-23T08:00:48.882Z,-1.20
2023-11-23T08:03:16.192Z,0.41
2023-11-23T08:05:49.304Z,0.94
2023-11-23T08:08:19.608Z,-1.23
2023-11-23T08:10:58.094Z,-0.22
2023-11-23T08:13:30.956Z,-0.22
2023-11-23T08:16:30.761Z,0.02
2023-11-23T08:19:49.770Z,0.34
2023-11-23T08:22:20.768Z,-1.11
2023-11-23T08:24:52.321Z,-0.03
2023-11-23T08:27:19.418Z,0.49
2023-11-23T08:29:47.444Z,-0.22
2023-11-23T08:32:16.628Z,-0.33
2023-11-23T08:34:45.018Z,-0.01
2023-11-23T08:37:12.538Z,-0.29
2023-11-23T08:39:41.351Z,0.66
2023-11-23T08:42:08.862Z,1.36
2023-11-23T08:44:36.368Z,0.76
2023-11-23T08:47:03.802Z,0.38
2023-11-23T08:49:32.534Z,0.44
2023-11-23T08:51:59.767Z,-0.05
2023-11-23T08:54:26.836Z,-0.62
2023-11-23T08:56:57.677Z,1.42
2023-11-23T08:59:24.748Z,0.82
2023-11-23T09:01:58.784Z,1.12
2023-11-23T09:04:40.070Z,0.35
2023-11-23T09:07:12.355Z,0.62
2023-11-23T09:09:42.019Z,-0.48
2023-11-23T09:12:09.272Z,0.53
2023-11-23T09:14:46.502Z,0.26
2023-11-23T09:17:21.802Z,-0.03
2023-11-23T09:19:48.943Z,-0.64
2023-11-23T09:22:15.974Z,0.41
2023-11-23T09:24:44.087Z,1.58
2023-11-23T09:27:12.362Z,1.04
2023-11-23T09:29:39.533Z,1.74
2023-11-23T09:32:06.881Z,2.31
2023-11-23T09:34:36.367Z,1.67
2023-11-23T09:37:03.309Z,2.00
2023-11-23T09:39:30.424Z,1.48
2023-11-23T09:42:00.024Z,1.29
2023-11-23T09:44:27.558Z,2.55
2023-11-23T09:46:56.781Z,1.56
2023-11-23T09:49:25.065Z,0.97
2023-11-23T09:51:53.396Z,2.49
2023-11-23T09:54:24.777Z,2.80
2023-11-23T09:56:52.210Z,2.96
2023-11-23T09:59:19.092Z,2.29
2023-11-23T10:01:49.202Z,2.32
2023-11-23T10:04:17.160Z,2.78
2023-11-23T10:06:44.400Z,1.77
2023-11-23T10:09:16.336Z,2.76
2023-11-23T10:11:44.151Z,2.62
2023-11-23T10:14:13.168Z,3.16
2023-11-23T10:16:40.219Z,3.35
2023-11-23T10:19:07.675Z,2.76
2023-11-23T10:21:35.665Z,2.58
2023-11-23T10:24:09.206Z,3.24
2023-11-23T10:26:36.346Z,2.35
2023-11-23T10:29:03.765Z,2.19
2023-11-23T10:31:32.335Z,2.43
2023-11-23T10:34:00.558Z,3.19
2023-11-23T10:36:28.713Z,2.75
2023-11-23T10:39:01.172Z,1.54
2023-11-23T10:41:28.653Z,3.29
2023-11-23T10:43:59.005Z,2.41
2023-11-23T10:46:26.298Z,2.84
2023-11-23T10:48:54.613Z,2.59
2023-11-23T10:51:25.372Z,3.24
2023-11-23T10:53:52.417Z,1.77
2023-11-23T10:56:28.058Z,3.12
2023-11-23T10:58:59.808Z,2.50
2023-11-23T11:01:28.026Z,3.01
2023-11-23T11:03:55.556Z,2.59
2023-11-23T11:06:24.354Z,2.79
2023-11-23T11:08:51.667Z,2.10
2023-11-23T11:11:23.944Z,2.69
2023-11-23T11:14:17.851Z,2.87
2023-11-23T11:16:44.974Z,2.38
2023-11-23T11:19:15.170Z,2.28
2023-11-23T11:21:48.460Z,2.80
2023-11-23T11:24:22.989Z,3.44
2023-11-23T11:26:51.186Z,2.29
2023-11-23T11:29:24.002Z,1.82
2023-11-23T11:31:51.092Z,2.45
2023-11-23T11:34:22.701Z,3.53
2023-11-23T11:37:03.473Z,3.85
2023-11-23T11:39:37.195Z,3.07
2023-11-23T11:42:08.694Z,3.30
2023-11-23T11:44:36.767Z,2.70
2023-11-23T11:47:09.375Z,2.36
2023-11-23T11:49:36.611Z,2.92
2023-11-23T11:52:03.898Z,3.40
2023-11-23T11:54:31.496Z,2.93
2023-11-23T11:56:58.513Z,2.70
2023-11-23T11:59:29.637Z,3.59
2023-11-23T12:01:58.025Z,2.94
2023-11-23T12:04:25.362Z,2.09
2023-11-23T12:06:53.974Z,3.04
2023-11-23T12:09:34.344Z,4.01
2023-11-23T12:12:11.931Z,3.64
2023-11-23T12:14:39.107Z,4.10
2023-11-23T12:17:14.093Z,3.75
2023-11-23T12:19:55.707Z,3.45
2023-11-23T12:22:28.454Z,3.70
2023-11-23T12:24:56.929Z,4.17
2023-11-23T12:27:26.448Z,4.15
2023-11-23T12:29:53.814Z,2.53
2023-11-23T12:32:20.622Z,4.06
2023-11-23T12:34:59.234Z,4.44
2023-11-23T12:37:26.592Z,3.52
2023-11-23T12:39:55.844Z,2.49
2023-11-23T12:42:24.078Z,3.02
2023-11-23T12:44:54.772Z,4.18
2023-11-23T12:47:22.615Z,4.08
2023-11-23T12:49:52.543Z,3.71
2023-11-23T12:52:29.405Z,3.39
2023-11-23T12:54:56.411Z,2.58
2023-11-23T12:57:23.449Z,4.21
2023-11-23T12:59:51.010Z,4.67
2023-11-23T13:02:20.811Z,4.24
2023-11-23T13:04:48.595Z,4.54
2023-11-23T13:07:15.804Z,3.87
2023-11-23T13:09:44.881Z,3.41
2023-11-23T13:12:15.195Z,3.92
2023-11-23T13:14:56.321Z,4.49
2023-11-23T13:17:28.292Z,3.97
2023-11-23T13:19:55.286Z,4.12
2023-11-23T13:22:24.343Z,3.40
2023-11-23T13:25:01.207Z,4.25
2023-11-23T13:28:30.021Z,4.60
2023-11-23T13:31:01.761Z,3.68
2023-11-23T13:33:39.907Z,4.04
2023-11-23T13:38:59.403Z,2.97
2023-11-23T13:39:24.600Z,3.80
2023-11-23T13:41:58.632Z,4.51
2023-11-23T13:44:43.238Z,4.10
2023-11-23T13:47:15.210Z,2.94
2023-11-23T13:49:59.367Z,4.87
2023-11-23T13:52:28.638Z,4.71
2023-11-23T13:55:01.489Z,4.36
2023-11-23T13:57:28.497Z,4.04
2023-11-23T13:59:55.553Z,2.60
2023-11-23T14:02:26.620Z,4.41
2023-11-23T14:04:53.940Z,3.56
2023-11-23T14:07:20.823Z,3.52
2023-11-23T14:09:49.951Z,4.85
2023-11-23T14:12:19.976Z,4.35
2023-11-23T14:14:49.513Z,3.92
2023-11-23T14:17:35.790Z,2.77
2023-11-23T14:20:13.645Z,3.86
2023-11-23T14:22:48.231Z,3.73
2023-11-23T14:25:18.306Z,3.20
2023-11-23T14:27:55.517Z,4.85
2023-11-23T14:30:38.862Z,3.54
2023-11-23T14:33:23.547Z,2.86
2023-11-23T14:35:54.634Z,2.60
2023-11-23T14:38:24.257Z,2.58
2023-11-23T14:40:52.431Z,3.69
2023-11-23T14:43:29.888Z,3.85
2023-11-23T14:46:00.925Z,3.55
2023-11-23T14:48:27.999Z,4.21
2023-11-23T14:51:04.402Z,4.22
2023-11-23T14:53:31.628Z,3.88
2023-11-23T14:56:02.758Z,4.29
2023-11-23T14:58:35.234Z,3.65
2023-11-23T15:01:02.325Z,3.16
2023-11-23T15:03:31.801Z,3.88
2023-11-23T15:06:00.630Z,3.17
2023-11-23T15:08:27.574Z,4.19
2023-11-23T15:10:57.166Z,3.27
2023-11-23T15:13:36.083Z,3.72
2023-11-23T15:16:07.473Z,4.55
2023-11-23T15:18:37.183Z,4.32
2023-11-23T15:21:08.100Z,4.31
2023-11-23T15:23:39.539Z,4.27
2023-11-23T15:26:10.006Z,4.17
2023-11-23T15:28:43.974Z,3.97
2023-11-23T15:31:11.820Z,3.65
2023-11-23T15:33:49.503Z,3.80
2023-11-23T15:36:23.685Z,3.94
2023-11-23T15:38:51.943Z,3.88
2023-11-23T15:41:19.373Z,3.45
2023-11-23T15:43:46.344Z,3.20
2023-11-23T15:46:13.447Z,3.64
2023-11-23T15:49:04.058Z,3.45
2023-11-23T15:52:08.693Z,3.46
2023-11-23T15:55:05.605Z,4.16
2023-11-23T15:58:32.028Z,3.34
2023-11-23T16:00:42.006Z,3.50
2023-11-23T16:03:15.974Z,3.52
2023-11-23T16:05:43.063Z,2.77
2023-11-23T16:08:26.702Z,3.70
2023-11-23T16:10:53.644Z,3.29
2023-11-23T16:13:23.349Z,3.80
2023-11-23T16:15:55.848Z,3.72
2023-11-23T16:18:22.910Z,3.99
2023-11-23T16:20:51.920Z,4.69
2023-11-23T16:23:18.974Z,4.57
2023-11-23T16:25:53.327Z,3.90
2023-11-23T16:28:21.276Z,4.38
2023-11-23T16:30:51.167Z,3.48
2023-11-23T16:33:30.384Z,4.08
2023-11-23T16:36:00.815Z,4.57
2023-11-23T16:45:36.131Z,3.86
2023-11-23T16:48:16.436Z,4.47
2023-11-23T16:50:47.399Z,4.45
2023-11-23T16:54:02.169Z,4.42
2023-11-23T16:56:36.018Z,4.64
2023-11-23T16:59:12.709Z,3.91
2023-11-23T17:01:42.870Z,3.78
2023-11-23T17:04:11.426Z,4.36
2023-11-23T17:06:43.846Z,2.88
2023-11-23T17:09:14.999Z,4.06
2023-11-23T17:11:54.081Z,3.14
2023-11-23T17:15:31.692Z,3.74
2023-11-23T17:19:00.186Z,3.34
2023-11-23T17:22:04.300Z,5.10
2023-11-23T17:25:16.584Z,5.07
2023-11-23T17:28:24.289Z,5.11
2023-11-23T17:31:03.741Z,5.08
2023-11-23T17:33:31.624Z,5.16
2023-11-23T17:35:58.436Z,5.27
2023-11-23T17:38:25.452Z,5.18
2023-11-23T17:40:52.070Z,5.22
2023-11-23T17:43:19.321Z,5.37
2023-11-23T17:45:48.448Z,5.29
2023-11-23T17:48:15.331Z,5.14
2023-11-23T17:50:41.931Z,5.09
2023-11-23T17:53:10.851Z,5.30
2023-11-23T17:55:37.414Z,5.28
2023-11-23T17:58:04.149Z,5.24
2023-11-23T18:00:31.618Z,5.28
2023-11-23T18:02:58.843Z,5.37
2023-11-23T18:05:44.834Z,5.40
2023-11-23T18:08:31.785Z,5.40
2023-11-23T18:11:18.938Z,5.42
2023-11-23T18:14:06.338Z,5.38
2023-11-23T18:16:53.429Z,5.25
2023-11-23T18:19:40.397Z,5.42
2023-11-23T18:22:27.355Z,5.49
2023-11-23T18:25:14.574Z,5.41
2023-11-23T18:28:01.521Z,5.40
2023-11-23T18:30:51.761Z,5.49
2023-11-23T18:33:38.757Z,5.52
2023-11-23T18:36:25.726Z,5.39
2023-11-23T18:39:14.968Z,5.40
2023-11-23T18:42:02.421Z,5.48
2023-11-23T18:44:49.453Z,5.53
2023-11-23T18:47:36.758Z,5.58
2023-11-23T18:50:24.451Z,5.56
2023-11-23T18:53:11.373Z,5.37
2023-11-23T18:55:58.344Z,5.48
2023-11-23T18:58:45.795Z,5.59
2023-11-23T19:01:33.425Z,5.61
2023-11-23T19:04:20.550Z,5.55
2023-11-23T19:07:07.622Z,5.65
2023-11-23T19:09:54.568Z,5.46
2023-11-23T19:12:51.587Z,5.45
2023-11-23T19:15:41.581Z,5.24
2023-11-23T19:18:28.778Z,5.29
2023-11-23T19:21:16.905Z,5.21
2023-11-23T19:24:04.292Z,5.12
2023-11-23T19:26:51.545Z,5.18
2023-11-23T19:29:45.880Z,5.25
2023-11-23T19:32:35.690Z,5.09
2023-11-23T19:35:23.171Z,5.07
2023-11-23T19:38:10.473Z,5.27
2023-11-23T19:41:02.418Z,5.10
2023-11-23T19:43:50.014Z,5.27
2023-11-23T19:46:37.458Z,5.34
2023-11-23T19:49:25.234Z,5.36
2023-11-23T19:52:26.141Z,5.49
2023-11-23T19:55:14.212Z,5.49
2023-11-23T19:58:01.483Z,5.29
2023-11-23T20:00:48.492Z,5.47
2023-11-23T20:03:35.515Z,5.58
2023-11-23T20:06:22.876Z,5.42
2023-11-23T20:09:11.065Z,5.62
2023-11-23T20:11:58.346Z,5.64
2023-11-23T20:14:45.299Z,5.68
2023-11-23T20:17:32.200Z,5.74
2023-11-23T20:20:19.184Z,5.46
2023-11-23T20:23:06.228Z,5.75
2023-11-23T20:25:53.168Z,5.88
2023-11-23T20:28:40.964Z,5.91
2023-11-23T20:31:29.451Z,5.99
2023-11-23T20:34:16.493Z,6.01
2023-11-23T20:37:04.119Z,5.94
2023-11-23T20:39:51.436Z,5.71
2023-11-23T20:42:40.143Z,6.00
2023-11-23T20:45:27.113Z,5.98
